Main page
METAR-TAF:

METAR-TAF

Airports :

Brive–Dordogne Valley Airport

Brive-la-Gaillarde, France

latitude: 45-02-28N, longitude: 001-28-59E, elevation: 311 m

Current weather observation

The report was made 25 minutes ago, at 02:00 UTC
Wind 1 kt from variable directions
Temperature 12°C
Humidity 100%
Pressure 1024 hPa
Visibility: 0400 m
fog

METAR: LFSL 220200Z AUTO VRB01KT 0450 0400 R29/0600U FG VV/// 12/12 Q1024

Time: 04:25 (02:25 UTC)

Forecast

The report was made 11 hours and 13 minutes ago, at 15:12 UTC
Forecast valid from 21 at 15 UTC to 21 at 24 UTC
Wind 8 kt from the Northwest
Visibility 10 km or more
Overcast at a height of 700 ft
Temporary
from 21 at 15 UTC to 21 at 16 UTC
Visibility: 3000 m
Overcast at a height of 400 ft
light rain
Becoming
from 21 at 16 UTC to 21 at 18 UTC
Scattered clouds at a height of 2500 ft

TAF: LFSL 211512Z 2115/2124 31008KT 9999 OVC007 TEMPO 2115/2116 3000 -RA OVC004 BECMG 2116/2118 SCT025

Weather observations and forecasts of more than 4000 airports (METAR and TAF reports).

The available stations are represented by yellow and red dots on the map.

Hover mouse over dot to see the name of the station.

Then click to see weather observations and forecasts.

To change the map : click on the green buttons with a black cross to zoom in, on the green button with a dash to zoom out, or on the green arrows for adjacent maps.


METAR-TAF: